Terminal Aerodrome Forecast
Issued by NWS

Home | Current Version | Previous Version | Text Only | Print | Product List | Glossary On
Versions: 1 2 3 4 5 6 7 8 9 10 11 12 13 14
000
FTUS46 KOTX 201729
TAFPUW
TAF
KPUW 201729Z 2018/2118 22012KT P6SM SCT030 SCT250
     FM210300 09002KT P6SM SCT100 BKN150
     FM211500 10010KT P6SM BKN120 OVC150=

USA.gov is the U.S. government's official web portal to all federal, state and local government web resources and services.